createdAt,value
2019-04-03T00:00:58.102Z,58.09
2019-04-03T00:01:58.105Z,57.99
2019-04-03T00:02:58.068Z,57.17
2019-04-03T00:03:58.053Z,56.87
2019-04-03T00:04:58.093Z,57.28
2019-04-03T00:05:58.049Z,57.58
2019-04-03T00:06:58.038Z,56.76
2019-04-03T00:07:58.002Z,56.87
2019-04-03T00:08:57.990Z,57.38
2019-04-03T00:09:57.992Z,57.38
2019-04-03T00:10:58.093Z,58.09
2019-04-03T00:11:58.000Z,58.09
2019-04-03T00:12:57.948Z,56.97
2019-04-03T00:13:57.940Z,57.28
2019-04-03T00:14:57.940Z,57.58
2019-04-03T00:15:58.119Z,57.17
2019-04-03T00:16:57.904Z,56.97
2019-04-03T00:17:57.923Z,57.07
2019-04-03T00:18:57.987Z,57.38
2019-04-03T00:19:57.876Z,57.58
2019-04-03T00:20:57.870Z,57.28
2019-04-03T00:21:57.858Z,57.79
2019-04-03T00:22:57.859Z,58.09
2019-04-03T00:23:57.836Z,57.89
2019-04-03T00:24:57.812Z,57.68
2019-04-03T00:25:57.806Z,57.28
2019-04-03T00:26:57.794Z,57.17
2019-04-03T00:27:57.801Z,57.07
2019-04-03T00:28:57.791Z,57.07
2019-04-03T00:29:57.779Z,56.97
2019-04-03T00:30:57.760Z,56.97
2019-04-03T00:31:57.734Z,57.07
2019-04-03T00:32:57.756Z,56.97
2019-04-03T00:33:57.724Z,56.97
2019-04-03T00:34:57.709Z,56.35
2019-04-03T00:35:57.724Z,57.15
2019-04-03T00:36:57.687Z,56.74
2019-04-03T00:37:57.689Z,56.74
2019-04-03T00:38:57.682Z,57.17
2019-04-03T00:39:57.662Z,57.04
2019-04-03T00:40:57.637Z,56.84
2019-04-03T00:41:57.631Z,57.04
2019-04-03T00:42:57.653Z,57.15
2019-04-03T00:43:57.618Z,56.46
2019-04-03T00:44:57.602Z,56.94
2019-04-03T00:45:57.607Z,56.84
2019-04-03T00:46:57.577Z,57.15
2019-04-03T00:47:57.674Z,56.97
2019-04-03T00:48:57.587Z,57.17
2019-04-03T00:49:57.553Z,56.84
2019-04-03T00:50:57.677Z,57.04
2019-04-03T00:51:58.073Z,57.25
2019-04-03T00:52:58.019Z,57.07
2019-04-03T00:53:58.111Z,57.07
2019-04-03T00:54:57.527Z,57.28
2019-04-03T00:55:57.474Z,57.28
2019-04-03T00:56:57.471Z,56.97
2019-04-03T00:57:57.490Z,57.17
2019-04-03T00:58:57.444Z,56.87
2019-04-03T00:59:57.421Z,57.79
2019-04-03T01:00:57.417Z,57.38
2019-04-03T01:01:57.604Z,57.28
2019-04-03T01:02:58.866Z,57.38
2019-04-03T01:03:58.808Z,58.50
2019-04-03T01:04:58.483Z,59.01
2019-04-03T01:05:58.350Z,58.70
2019-04-03T01:06:58.630Z,58.61
2019-04-03T01:07:59.213Z,57.51
2019-04-03T01:08:59.025Z,58.81
2019-04-03T01:09:57.804Z,58.33
2019-04-03T01:10:57.308Z,58.43
2019-04-03T01:11:57.295Z,59.04
2019-04-03T01:12:57.299Z,59.25
2019-04-03T01:13:57.293Z,58.81
2019-04-03T01:14:57.260Z,58.29
2019-04-03T01:15:57.249Z,57.51
2019-04-03T01:16:57.244Z,57.51
2019-04-03T01:17:57.228Z,58.63
2019-04-03T01:18:57.235Z,58.73
2019-04-03T01:19:57.205Z,58.84
2019-04-03T01:20:57.208Z,59.25
2019-04-03T01:21:57.187Z,59.25
2019-04-03T01:22:57.166Z,59.45
2019-04-03T01:23:57.196Z,59.55
2019-04-03T01:24:57.259Z,59.14
2019-04-03T01:25:57.147Z,59.14
2019-04-03T01:26:57.128Z,59.45
2019-04-03T01:27:57.145Z,59.35
2019-04-03T01:28:57.128Z,59.66
2019-04-03T01:29:57.105Z,59.45
2019-04-03T01:30:57.087Z,59.66
2019-04-03T01:31:57.079Z,59.48
2019-04-03T01:32:57.069Z,59.27
2019-04-03T01:33:57.063Z,59.58
2019-04-03T01:34:57.040Z,59.78
2019-04-03T01:35:57.020Z,59.48
2019-04-03T01:36:57.021Z,59.48
2019-04-03T01:37:57.014Z,59.27
2019-04-03T01:38:57.031Z,59.38
2019-04-03T01:39:56.986Z,59.17
2019-04-03T01:40:56.974Z,59.35
2019-04-03T01:41:56.956Z,59.99
2019-04-03T01:42:56.989Z,59.78
2019-04-03T01:43:56.957Z,59.99
2019-04-03T01:44:56.939Z,59.78
2019-04-03T01:45:57.325Z,59.68
2019-04-03T01:46:57.684Z,60.10
2019-04-03T01:47:58.212Z,59.99
2019-04-03T01:48:58.572Z,60.19
2019-04-03T01:49:58.608Z,60.30
2019-04-03T01:50:59.217Z,60.19
2019-04-03T01:51:56.854Z,60.10
2019-04-03T01:52:56.873Z,59.99
2019-04-03T01:53:56.830Z,60.12
2019-04-03T01:54:56.835Z,60.63
2019-04-03T01:55:56.801Z,60.53
2019-04-03T01:56:56.897Z,60.12
2019-04-03T01:57:56.781Z,60.63
2019-04-03T01:58:56.775Z,60.12
2019-04-03T01:59:56.780Z,59.89
2019-04-03T02:00:56.762Z,60.12
2019-04-03T02:01:56.743Z,60.30
2019-04-03T02:02:56.867Z,60.42
2019-04-03T02:03:56.833Z,60.63
2019-04-03T02:04:56.721Z,60.84
2019-04-03T02:05:56.860Z,60.63
2019-04-03T02:06:56.692Z,59.81
2019-04-03T02:07:56.668Z,60.33
2019-04-03T02:08:56.780Z,60.74
2019-04-03T02:09:56.672Z,60.84
2019-04-03T02:10:56.642Z,60.42
2019-04-03T02:11:56.625Z,60.74
2019-04-03T02:12:56.619Z,60.22
2019-04-03T02:13:56.625Z,60.76
2019-04-03T02:14:56.611Z,60.22
2019-04-03T02:15:56.583Z,60.42
2019-04-03T02:16:56.585Z,60.63
2019-04-03T02:17:56.560Z,60.63
2019-04-03T02:18:56.558Z,60.74
2019-04-03T02:19:56.997Z,60.12
2019-04-03T02:20:57.676Z,61.04
2019-04-03T02:21:58.207Z,60.94
2019-04-03T02:22:59.652Z,60.74
2019-04-03T02:23:56.494Z,60.22
2019-04-03T02:24:56.666Z,60.12
2019-04-03T02:25:56.471Z,60.53
2019-04-03T02:26:56.461Z,60.63
2019-04-03T02:27:56.445Z,60.42
2019-04-03T02:28:56.456Z,60.33
2019-04-03T02:29:56.478Z,61.15
2019-04-03T02:30:56.425Z,60.53
2019-04-03T02:31:56.404Z,61.04
2019-04-03T02:32:57.266Z,61.45
2019-04-03T02:33:56.403Z,62.17
2019-04-03T02:34:56.380Z,62.10
2019-04-03T02:35:56.546Z,63.12
2019-04-03T02:36:56.560Z,62.30
2019-04-03T02:37:56.334Z,62.61
2019-04-03T02:38:56.334Z,62.71
2019-04-03T02:39:59.067Z,62.40
2019-04-03T02:40:56.328Z,62.63
2019-04-03T02:41:56.356Z,62.74
2019-04-03T02:42:56.281Z,62.74
2019-04-03T02:43:56.275Z,62.74
2019-04-03T02:44:56.366Z,62.92
2019-04-03T02:45:57.242Z,62.81
2019-04-03T02:46:59.451Z,62.54
2019-04-03T02:47:56.276Z,63.15
2019-04-03T02:48:56.219Z,63.22
2019-04-03T02:49:56.209Z,64.17
2019-04-03T02:50:56.367Z,63.76
2019-04-03T02:51:56.206Z,62.63
2019-04-03T02:52:58.138Z,62.74
2019-04-03T02:53:56.244Z,62.63
2019-04-03T02:54:56.149Z,63.02
2019-04-03T02:55:56.320Z,62.84
2019-04-03T02:56:56.144Z,62.40
2019-04-03T02:57:56.146Z,62.84
2019-04-03T02:58:56.108Z,62.74
2019-04-03T02:59:58.756Z,62.63
2019-04-03T03:00:56.107Z,63.22
2019-04-03T03:01:56.245Z,63.02
2019-04-03T03:02:56.098Z,63.25
2019-04-03T03:03:56.247Z,63.12
2019-04-03T03:04:56.046Z,63.02
2019-04-03T03:05:59.279Z,62.61
2019-04-03T03:06:56.035Z,63.22
2019-04-03T03:07:56.170Z,62.74
2019-04-03T03:08:56.007Z,62.71
2019-04-03T03:09:56.024Z,63.05
2019-04-03T03:10:55.988Z,62.74
2019-04-03T03:11:56.957Z,62.61
2019-04-03T03:12:59.871Z,62.71
2019-04-03T03:13:56.937Z,62.81
2019-04-03T03:14:55.993Z,62.71
2019-04-03T03:15:55.936Z,62.92
2019-04-03T03:16:55.925Z,62.61
2019-04-03T03:17:56.297Z,62.95
2019-04-03T03:18:59.958Z,62.54
2019-04-03T03:19:57.037Z,62.81
2019-04-03T03:20:56.119Z,62.95
2019-04-03T03:21:55.864Z,62.92
2019-04-03T03:22:55.857Z,62.74
2019-04-03T03:23:57.174Z,62.84
2019-04-03T03:24:55.828Z,62.63
2019-04-03T03:25:55.823Z,62.63
2019-04-03T03:26:56.025Z,62.63
2019-04-03T03:27:55.794Z,63.35
2019-04-03T03:28:55.845Z,63.05
2019-04-03T03:29:58.558Z,63.25
2019-04-03T03:31:02.051Z,63.15
2019-04-03T03:32:09.828Z,63.15
2019-04-03T03:33:21.816Z,63.15
2019-04-03T03:34:01.627Z,63.15
2019-04-03T03:35:09.583Z,62.54
2019-04-03T03:35:57.014Z,62.63
2019-04-03T03:37:00.558Z,63.05
2019-04-03T03:37:56.676Z,63.18
2019-04-03T03:38:55.667Z,63.15
2019-04-03T03:39:55.652Z,62.74
2019-04-03T03:40:55.647Z,63.56
2019-04-03T03:41:57.555Z,63.35
2019-04-03T03:42:56.063Z,63.59
2019-04-03T03:43:55.618Z,63.79
2019-04-03T03:44:55.617Z,63.90
2019-04-03T03:45:55.720Z,63.18
2019-04-03T03:46:59.360Z,63.07
2019-04-03T03:47:56.877Z,63.05
2019-04-03T03:48:55.548Z,63.15
2019-04-03T03:49:55.563Z,63.07
2019-04-03T03:50:57.514Z,63.25
2019-04-03T03:51:55.954Z,63.49
2019-04-03T03:52:55.518Z,63.35
2019-04-03T03:53:55.730Z,62.66
2019-04-03T03:54:55.489Z,63.25
2019-04-03T03:55:58.425Z,63.28
2019-04-03T03:56:55.486Z,62.63
2019-04-03T03:57:55.473Z,63.46
2019-04-03T03:58:55.570Z,62.74
2019-04-03T03:59:55.431Z,62.63
2019-04-03T04:00:58.743Z,62.54
2019-04-03T04:01:55.431Z,62.54
2019-04-03T04:02:55.415Z,63.35
2019-04-03T04:03:55.573Z,63.35
2019-04-03T04:04:55.375Z,63.25
2019-04-03T04:05:56.416Z,62.63
2019-04-03T04:06:55.370Z,62.54
2019-04-03T04:07:55.666Z,63.05
2019-04-03T04:08:55.371Z,63.07
2019-04-03T04:09:55.333Z,63.15
2019-04-03T04:10:58.108Z,62.84
2019-04-03T04:11:55.509Z,62.84
2019-04-03T04:12:55.280Z,63.25
2019-04-03T04:13:55.751Z,62.63
2019-04-03T04:14:57.085Z,62.54
2019-04-03T04:15:55.267Z,62.84
2019-04-03T04:16:55.493Z,64.59
2019-04-03T04:17:55.243Z,64.72
2019-04-03T04:18:57.372Z,64.28
2019-04-03T04:19:55.201Z,64.38
2019-04-03T04:20:55.220Z,63.90
2019-04-03T04:21:55.209Z,64.51
2019-04-03T04:22:55.242Z,64.51
2019-04-03T04:23:55.984Z,63.39
2019-04-03T04:24:55.362Z,63.15
2019-04-03T04:25:55.141Z,63.07
2019-04-03T04:26:55.186Z,63.18
2019-04-03T04:27:55.120Z,62.87
2019-04-03T04:28:55.108Z,63.25
2019-04-03T04:29:55.094Z,63.15
2019-04-03T04:30:55.152Z,63.15
2019-04-03T04:31:55.098Z,62.84
2019-04-03T04:32:55.068Z,62.95
2019-04-03T04:33:55.114Z,63.15
2019-04-03T04:34:55.047Z,64.00
2019-04-03T04:35:55.025Z,64.10
2019-04-03T04:36:56.035Z,63.90
2019-04-03T04:37:55.888Z,63.90
2019-04-03T04:38:57.343Z,63.87
2019-04-03T04:39:54.983Z,63.90
2019-04-03T04:40:54.971Z,64.41
2019-04-03T04:41:54.981Z,63.87
2019-04-03T04:42:54.948Z,64.51
2019-04-03T04:43:54.950Z,64.61
2019-04-03T04:44:54.936Z,64.59
2019-04-03T04:45:54.985Z,64.20
2019-04-03T04:46:54.939Z,64.51
2019-04-03T04:47:54.931Z,64.41
2019-04-03T04:48:55.147Z,64.61
2019-04-03T04:49:54.902Z,64.61
2019-04-03T04:50:55.512Z,64.41
2019-04-03T04:51:56.672Z,64.41
2019-04-03T04:52:54.854Z,64.92
2019-04-03T04:53:54.829Z,65.57
2019-04-03T04:54:54.817Z,65.47
2019-04-03T04:55:54.810Z,64.82
2019-04-03T04:56:54.812Z,64.72
2019-04-03T04:57:54.799Z,64.92
2019-04-03T04:58:54.779Z,65.23
2019-04-03T04:59:54.778Z,64.72
2019-04-03T05:00:54.761Z,64.41
2019-04-03T05:01:54.743Z,64.51
2019-04-03T05:02:54.773Z,64.95
2019-04-03T05:03:54.911Z,64.82
2019-04-03T05:04:55.817Z,64.51
2019-04-03T05:05:57.361Z,64.61
2019-04-03T05:06:55.019Z,64.92
2019-04-03T05:07:54.988Z,64.20
2019-04-03T05:08:54.684Z,64.31
2019-04-03T05:09:54.690Z,64.00
2019-04-03T05:10:54.641Z,64.72
2019-04-03T05:11:54.644Z,65.12
2019-04-03T05:12:54.640Z,64.61
2019-04-03T05:13:54.615Z,64.92
2019-04-03T05:14:54.598Z,64.51
2019-04-03T05:15:54.904Z,64.92
2019-04-03T05:16:55.915Z,65.12
2019-04-03T05:17:57.092Z,64.72
2019-04-03T05:18:54.771Z,65.12
2019-04-03T05:19:54.559Z,64.92
2019-04-03T05:20:54.527Z,64.82
2019-04-03T05:21:54.527Z,65.12
2019-04-03T05:22:55.347Z,64.61
2019-04-03T05:23:56.112Z,64.61
2019-04-03T05:24:54.495Z,64.61
2019-04-03T05:25:54.468Z,64.48
2019-04-03T05:26:54.498Z,64.41
2019-04-03T05:27:54.450Z,65.12
2019-04-03T05:28:57.447Z,64.72
2019-04-03T05:29:54.427Z,64.89
2019-04-03T05:30:54.416Z,64.59
2019-04-03T05:31:54.444Z,64.59
2019-04-03T05:32:54.471Z,64.89
2019-04-03T05:33:54.407Z,65.03
2019-04-03T05:34:54.380Z,64.59
2019-04-03T05:35:54.505Z,65.23
2019-04-03T05:36:54.407Z,64.51
2019-04-03T05:37:54.521Z,65.33
2019-04-03T05:38:54.366Z,65.44
2019-04-03T05:39:55.522Z,65.03
2019-04-03T05:40:56.126Z,64.92
2019-04-03T05:41:54.298Z,64.61
2019-04-03T05:42:54.278Z,64.61
2019-04-03T05:43:54.296Z,64.61
2019-04-03T05:44:54.262Z,65.23
2019-04-03T05:45:54.258Z,64.92
2019-04-03T05:46:54.312Z,65.12
2019-04-03T05:47:54.349Z,64.41
2019-04-03T05:48:54.444Z,64.51
2019-04-03T05:49:55.734Z,65.12
2019-04-03T05:50:54.265Z,65.03
2019-04-03T05:51:54.180Z,65.44
2019-04-03T05:52:54.179Z,65.33
2019-04-03T05:53:54.595Z,65.12
2019-04-03T05:54:54.367Z,64.61
2019-04-03T05:55:54.153Z,64.72
2019-04-03T05:56:54.223Z,64.41
2019-04-03T05:57:54.132Z,64.41
2019-04-03T05:58:56.963Z,64.61
2019-04-03T06:00:00.519Z,64.51
2019-04-03T06:01:04.247Z,64.51
2019-04-03T06:01:55.216Z,64.61
2019-04-03T06:02:56.926Z,64.61
2019-04-03T06:03:54.252Z,65.03
2019-04-03T06:04:54.086Z,65.23
2019-04-03T06:05:57.195Z,64.61
2019-04-03T06:06:54.023Z,64.59
2019-04-03T06:07:54.138Z,64.61
2019-04-03T06:08:56.502Z,64.28
2019-04-03T06:09:58.325Z,64.07
2019-04-03T06:10:54.067Z,64.38
2019-04-03T06:11:53.970Z,64.38
2019-04-03T06:12:53.976Z,64.17
2019-04-03T06:13:54.060Z,64.69
2019-04-03T06:14:54.005Z,63.87
2019-04-03T06:15:54.169Z,64.14
2019-04-03T06:16:56.115Z,63.87
2019-04-03T06:17:55.068Z,63.87
2019-04-03T06:18:54.209Z,64.07
2019-04-03T06:19:53.880Z,64.76
2019-04-03T06:20:53.867Z,64.69
2019-04-03T06:21:53.861Z,64.69
2019-04-03T06:22:54.100Z,63.56
2019-04-03T06:23:54.016Z,64.45
2019-04-03T06:24:55.552Z,63.84
2019-04-03T06:25:53.829Z,63.84
2019-04-03T06:26:53.810Z,64.56
2019-04-03T06:27:53.786Z,63.02
2019-04-03T06:28:53.985Z,63.84
2019-04-03T06:29:55.033Z,64.45
2019-04-03T06:30:55.505Z,63.84
2019-04-03T06:31:53.740Z,63.02
2019-04-03T06:32:55.014Z,63.53
2019-04-03T06:33:53.739Z,63.43
2019-04-03T06:34:53.706Z,62.71
2019-04-03T06:35:53.863Z,62.48
2019-04-03T06:36:53.713Z,62.58
2019-04-03T06:37:53.686Z,62.68
2019-04-03T06:38:54.277Z,62.88
2019-04-03T06:39:53.650Z,62.58
2019-04-03T06:40:53.645Z,62.48
2019-04-03T06:41:53.641Z,62.78
2019-04-03T06:42:53.626Z,62.58
2019-04-03T06:43:54.413Z,62.58
2019-04-03T06:44:54.063Z,62.99
2019-04-03T06:45:53.813Z,62.37
2019-04-03T06:46:54.813Z,62.68
2019-04-03T06:47:53.571Z,61.55
2019-04-03T06:48:55.217Z,61.55
2019-04-03T06:49:53.541Z,61.73
2019-04-03T06:50:53.706Z,62.04
2019-04-03T06:51:53.521Z,61.52
2019-04-03T06:52:53.736Z,62.04
2019-04-03T06:53:53.656Z,61.01
2019-04-03T06:54:53.488Z,61.52
2019-04-03T06:55:53.468Z,61.63
2019-04-03T06:56:53.467Z,61.63
2019-04-03T06:57:53.479Z,61.43
2019-04-03T06:58:53.483Z,61.43
2019-04-03T06:59:53.448Z,61.43
2019-04-03T07:00:54.722Z,62.21
2019-04-03T07:01:53.658Z,61.40
2019-04-03T07:02:53.398Z,60.58
2019-04-03T07:03:53.586Z,60.78
2019-04-03T07:04:53.407Z,60.99
2019-04-03T07:05:53.377Z,60.27
2019-04-03T07:06:55.715Z,60.68
2019-04-03T07:07:53.343Z,60.78
2019-04-03T07:08:53.335Z,60.68
2019-04-03T07:09:53.484Z,60.68
2019-04-03T07:10:55.267Z,61.60
2019-04-03T07:11:53.426Z,60.78
2019-04-03T07:12:53.292Z,60.88
2019-04-03T07:13:54.371Z,60.85
2019-04-03T07:14:53.290Z,60.47
2019-04-03T07:15:55.854Z,60.68
2019-04-03T07:16:53.471Z,60.55
2019-04-03T07:17:53.545Z,60.96
2019-04-03T07:18:53.398Z,61.16
2019-04-03T07:19:53.232Z,60.24
2019-04-03T07:20:53.193Z,60.24
2019-04-03T07:21:55.437Z,60.03
2019-04-03T07:22:53.185Z,60.03
2019-04-03T07:23:53.350Z,60.65
2019-04-03T07:24:53.172Z,60.03
2019-04-03T07:25:53.257Z,60.24
2019-04-03T07:26:53.129Z,60.03
2019-04-03T07:27:53.127Z,60.11
2019-04-03T07:28:53.101Z,60.24
2019-04-03T07:29:53.232Z,60.52
2019-04-03T07:30:53.954Z,60.62
2019-04-03T07:31:55.232Z,60.21
2019-04-03T07:32:53.068Z,60.52
2019-04-03T07:33:53.047Z,59.91
2019-04-03T07:34:53.120Z,59.80
2019-04-03T07:35:53.044Z,60.08
2019-04-03T07:36:53.036Z,59.80
2019-04-03T07:37:53.006Z,60.08
2019-04-03T07:38:53.088Z,59.47
2019-04-03T07:39:53.071Z,59.78
2019-04-03T07:40:52.974Z,59.47
2019-04-03T07:41:54.164Z,60.19
2019-04-03T07:42:55.369Z,59.44
2019-04-03T07:43:52.955Z,59.75
2019-04-03T07:44:52.954Z,59.34
2019-04-03T07:45:52.921Z,59.64
2019-04-03T07:46:54.859Z,59.14
2019-04-03T07:47:52.899Z,59.14
2019-04-03T07:48:52.886Z,59.14
2019-04-03T07:49:53.133Z,59.14
2019-04-03T07:50:53.041Z,59.64
2019-04-03T07:51:53.004Z,59.75
2019-04-03T07:52:53.029Z,59.03
2019-04-03T07:53:52.959Z,59.14
2019-04-03T07:54:54.082Z,59.23
2019-04-03T07:55:55.103Z,58.80
2019-04-03T07:56:53.080Z,59.11
2019-04-03T07:57:52.789Z,58.91
2019-04-03T07:58:52.767Z,58.80
2019-04-03T07:59:53.071Z,58.70
2019-04-03T08:00:52.767Z,58.70
2019-04-03T08:01:52.747Z,59.21
2019-04-03T08:02:52.726Z,58.91
2019-04-03T08:03:53.409Z,58.98
2019-04-03T08:04:55.724Z,59.11
2019-04-03T08:05:56.039Z,59.39
2019-04-03T08:06:52.689Z,59.18
2019-04-03T08:07:52.909Z,59.08
2019-04-03T08:09:05.556Z,58.67
2019-04-03T08:09:53.669Z,58.47
2019-04-03T08:10:52.900Z,58.54
2019-04-03T08:11:52.629Z,57.65
2019-04-03T08:12:52.630Z,57.14
2019-04-03T08:13:52.614Z,56.91
2019-04-03T08:14:52.599Z,58.03
2019-04-03T08:15:52.616Z,57.62
2019-04-03T08:16:52.569Z,57.32
2019-04-03T08:17:52.566Z,57.83
2019-04-03T08:18:52.564Z,56.81
2019-04-03T08:19:54.662Z,57.83
2019-04-03T08:20:52.560Z,56.78
2019-04-03T08:21:52.545Z,57.09
2019-04-03T08:22:52.727Z,57.19
2019-04-03T08:23:52.510Z,57.39
2019-04-03T08:24:53.711Z,56.99
2019-04-03T08:25:54.271Z,56.76
2019-04-03T08:26:52.777Z,56.58
2019-04-03T08:27:54.548Z,56.76
2019-04-03T08:28:52.497Z,56.65
2019-04-03T08:29:52.425Z,56.24
2019-04-03T08:30:52.444Z,56.45
2019-04-03T08:31:52.501Z,55.51
2019-04-03T08:32:52.635Z,55.00
2019-04-03T08:33:52.454Z,53.98
2019-04-03T08:34:52.376Z,54.18
2019-04-03T08:35:52.389Z,54.69
2019-04-03T08:36:52.346Z,54.18
2019-04-03T08:37:52.353Z,54.18
2019-04-03T08:38:52.337Z,54.08
2019-04-03T08:39:52.326Z,54.39
2019-04-03T08:40:53.443Z,54.16
2019-04-03T08:41:53.785Z,54.28
2019-04-03T08:42:52.289Z,54.57
2019-04-03T08:43:52.274Z,54.77
2019-04-03T08:44:52.321Z,55.48
2019-04-03T08:45:52.277Z,55.18
2019-04-03T08:46:52.256Z,55.68
2019-04-03T08:47:52.345Z,56.20
2019-04-03T08:48:54.318Z,55.38
2019-04-03T08:49:52.422Z,54.77
2019-04-03T08:50:52.227Z,54.26
2019-04-03T08:51:52.384Z,53.75
2019-04-03T08:52:52.358Z,54.57
2019-04-03T08:53:54.100Z,54.57
2019-04-03T08:54:52.168Z,53.75
2019-04-03T08:55:52.216Z,54.26
2019-04-03T08:56:52.148Z,55.18
2019-04-03T08:57:52.927Z,54.57
2019-04-03T08:58:52.117Z,55.48
2019-04-03T08:59:52.099Z,54.36
2019-04-03T09:00:52.137Z,54.24
2019-04-03T09:01:54.970Z,53.83
2019-04-03T09:02:52.071Z,54.03
2019-04-03T09:03:52.057Z,55.46
2019-04-03T09:04:52.044Z,54.44
2019-04-03T09:05:54.081Z,54.85
2019-04-03T09:06:54.133Z,54.74
2019-04-03T09:07:52.010Z,55.35
2019-04-03T09:08:52.001Z,54.13
2019-04-03T09:09:51.985Z,54.54
2019-04-03T09:10:52.028Z,54.44
2019-04-03T09:11:51.973Z,54.72
2019-04-03T09:12:51.953Z,54.51
2019-04-03T09:13:54.378Z,54.24
2019-04-03T09:14:51.929Z,54.21
2019-04-03T09:15:52.187Z,54.11
2019-04-03T09:16:51.927Z,54.21
2019-04-03T09:17:51.893Z,54.11
2019-04-03T09:18:51.889Z,54.51
2019-04-03T09:19:51.884Z,54.24
2019-04-03T09:20:51.866Z,54.00
2019-04-03T09:21:51.868Z,53.09
2019-04-03T09:22:53.944Z,54.41
2019-04-03T09:23:51.833Z,53.80
2019-04-03T09:24:52.206Z,54.11
2019-04-03T09:25:51.855Z,53.19
2019-04-03T09:26:51.965Z,52.98
2019-04-03T09:27:52.066Z,52.66
2019-04-03T09:28:51.801Z,53.27
2019-04-03T09:29:51.759Z,52.86
2019-04-03T09:30:54.018Z,52.73
2019-04-03T09:31:52.488Z,53.04
2019-04-03T09:32:53.399Z,53.14
2019-04-03T09:33:51.721Z,51.42
2019-04-03T09:34:51.707Z,50.17
2019-04-03T09:35:51.692Z,49.99
2019-04-03T09:36:51.997Z,49.69
2019-04-03T09:37:51.683Z,49.58
2019-04-03T09:38:51.714Z,49.56
2019-04-03T09:39:51.672Z,49.18
2019-04-03T09:40:51.647Z,49.99
2019-04-03T09:41:51.713Z,48.97
2019-04-03T09:42:52.027Z,49.16
2019-04-03T09:43:51.860Z,49.16
2019-04-03T09:44:51.840Z,49.97
2019-04-03T09:45:51.649Z,48.75
2019-04-03T09:46:51.854Z,49.76
2019-04-03T09:47:51.581Z,49.36
2019-04-03T09:48:51.634Z,49.36
2019-04-03T09:49:51.531Z,49.87
2019-04-03T09:50:51.538Z,50.17
2019-04-03T09:51:52.901Z,50.56
2019-04-03T09:52:54.043Z,49.84
2019-04-03T09:53:51.493Z,49.84
2019-04-03T09:54:51.713Z,49.84
2019-04-03T09:55:51.466Z,49.52
2019-04-03T09:56:59.459Z,48.91
2019-04-03T09:57:53.323Z,47.89
2019-04-03T09:58:51.689Z,47.18
2019-04-03T09:59:51.422Z,46.98
2019-04-03T10:00:51.415Z,47.28
2019-04-03T10:01:51.416Z,47.79
2019-04-03T10:02:51.957Z,47.79
2019-04-03T10:03:53.776Z,47.79
2019-04-03T10:04:51.366Z,48.40
2019-04-03T10:05:51.372Z,47.99
2019-04-03T10:06:51.372Z,48.19
2019-04-03T10:07:51.565Z,47.49
2019-04-03T10:08:51.451Z,47.79
2019-04-03T10:09:53.751Z,47.18
2019-04-03T10:10:51.339Z,48.10
2019-04-03T10:11:52.483Z,47.99
2019-04-03T10:12:53.701Z,48.40
2019-04-03T10:13:51.280Z,48.19
2019-04-03T10:14:51.695Z,47.69
2019-04-03T10:15:51.264Z,47.46
2019-04-03T10:16:51.262Z,47.16
2019-04-03T10:17:51.235Z,47.77
2019-04-03T10:18:51.443Z,47.26
2019-04-03T10:19:51.226Z,47.26
2019-04-03T10:20:51.192Z,47.16
2019-04-03T10:21:52.872Z,47.26
2019-04-03T10:22:51.203Z,47.26
2019-04-03T10:23:51.192Z,47.16
2019-04-03T10:24:51.147Z,46.95
2019-04-03T10:25:53.055Z,47.56
2019-04-03T10:26:51.165Z,47.16
2019-04-03T10:27:51.112Z,47.26
2019-04-03T10:28:51.100Z,46.14
2019-04-03T10:29:51.201Z,45.94
2019-04-03T10:30:52.843Z,45.54
2019-04-03T10:31:51.104Z,47.03
2019-04-03T10:32:51.063Z,46.94
2019-04-03T10:33:51.054Z,46.43
2019-04-03T10:34:51.161Z,46.12
2019-04-03T10:35:51.488Z,45.19
2019-04-03T10:36:51.036Z,45.11
2019-04-03T10:37:51.004Z,45.39
2019-04-03T10:38:51.459Z,45.39
2019-04-03T10:39:53.088Z,45.50
2019-04-03T10:40:50.998Z,44.99
2019-04-03T10:41:50.981Z,45.59
2019-04-03T10:42:50.963Z,44.68
2019-04-03T10:43:51.082Z,44.89
2019-04-03T10:44:51.265Z,45.09
2019-04-03T10:45:50.916Z,46.00
2019-04-03T10:46:51.238Z,46.99
2019-04-03T10:47:50.896Z,47.19
2019-04-03T10:48:50.886Z,46.99
2019-04-03T10:49:50.873Z,45.37
2019-04-03T10:50:50.862Z,44.76
2019-04-03T10:51:50.916Z,44.13
2019-04-03T10:52:50.983Z,43.23
2019-04-03T10:53:52.326Z,44.56
2019-04-03T10:54:50.821Z,44.74
2019-04-03T10:55:50.811Z,44.24
2019-04-03T10:56:51.056Z,44.03
2019-04-03T10:57:50.842Z,43.73
2019-04-03T10:58:51.105Z,43.52
2019-04-03T10:59:54.351Z,43.52
2019-04-03T11:00:50.762Z,44.03
2019-04-03T11:01:51.114Z,45.04
2019-04-03T11:02:50.788Z,45.04
2019-04-03T11:03:50.861Z,45.12
2019-04-03T11:04:50.828Z,44.54
2019-04-03T11:05:50.700Z,43.43
2019-04-03T11:06:50.708Z,43.51
2019-04-03T11:07:50.682Z,43.30
2019-04-03T11:08:50.994Z,43.10
2019-04-03T11:09:50.657Z,43.30
2019-04-03T11:10:50.734Z,44.01
2019-04-03T11:11:50.660Z,44.21
2019-04-03T11:12:50.973Z,44.20
2019-04-03T11:13:50.901Z,43.30
2019-04-03T11:14:50.599Z,43.18
2019-04-03T11:15:50.585Z,43.49
2019-04-03T11:16:50.598Z,43.10
2019-04-03T11:17:50.548Z,43.29
2019-04-03T11:18:58.494Z,44.09
2019-04-03T11:19:51.671Z,43.26
2019-04-03T11:20:50.529Z,44.07
2019-04-03T11:21:50.888Z,43.37
2019-04-03T11:22:50.722Z,42.25
2019-04-03T11:23:50.533Z,42.23
2019-04-03T11:24:50.877Z,42.66
2019-04-03T11:25:50.474Z,42.35
2019-04-03T11:26:51.780Z,42.33
2019-04-03T11:27:50.716Z,42.13
2019-04-03T11:28:50.464Z,41.22
2019-04-03T11:29:50.528Z,42.54
2019-04-03T11:30:52.816Z,41.42
2019-04-03T11:31:50.394Z,42.33
2019-04-03T11:32:50.477Z,42.03
2019-04-03T11:33:51.480Z,42.13
2019-04-03T11:34:50.376Z,42.13
2019-04-03T11:35:52.316Z,42.64
2019-04-03T11:36:50.431Z,42.41
2019-04-03T11:37:50.593Z,41.81
2019-04-03T11:38:50.344Z,41.10
2019-04-03T11:40:02.023Z,41.81
2019-04-03T11:40:51.646Z,41.30
2019-04-03T11:41:50.294Z,41.61
2019-04-03T11:42:50.344Z,41.71
2019-04-03T11:43:50.288Z,41.30
2019-04-03T11:44:50.346Z,42.11
2019-04-03T11:45:50.243Z,41.81
2019-04-03T11:46:50.233Z,41.49
2019-04-03T11:47:50.246Z,41.28
2019-04-03T11:48:50.208Z,41.77
2019-04-03T11:49:52.377Z,42.60
2019-04-03T11:50:50.183Z,42.88
2019-04-03T11:51:50.181Z,42.98
2019-04-03T11:52:52.064Z,42.98
2019-04-03T11:53:50.165Z,43.48
2019-04-03T11:54:52.333Z,43.08
2019-04-03T11:55:50.135Z,43.06
2019-04-03T11:56:50.143Z,43.79
2019-04-03T11:57:50.146Z,43.18
2019-04-03T11:58:52.071Z,42.98
2019-04-03T11:59:50.207Z,42.88
2019-04-03T12:00:50.252Z,42.88
2019-04-03T12:01:50.067Z,43.08
2019-04-03T12:02:50.103Z,43.28
2019-04-03T12:03:51.471Z,43.69
2019-04-03T12:04:50.135Z,42.96
2019-04-03T12:05:50.338Z,43.08
2019-04-03T12:06:51.980Z,43.89
2019-04-03T12:07:50.140Z,43.28
2019-04-03T12:08:50.320Z,42.68
2019-04-03T12:09:49.980Z,44.09
2019-04-03T12:10:49.981Z,44.49
2019-04-03T12:11:50.194Z,44.09
2019-04-03T12:12:50.251Z,43.28
2019-04-03T12:13:50.355Z,44.07
2019-04-03T12:14:50.223Z,43.99
2019-04-03T12:15:52.147Z,43.77
2019-04-03T12:16:49.932Z,42.66
2019-04-03T12:17:49.963Z,42.86
2019-04-03T12:18:49.913Z,42.96
2019-04-03T12:19:49.890Z,44.09
2019-04-03T12:20:50.417Z,43.66
2019-04-03T12:21:50.863Z,42.66
2019-04-03T12:22:49.855Z,42.55
2019-04-03T12:23:49.839Z,43.37
2019-04-03T12:24:49.831Z,43.34
2019-04-03T12:25:50.150Z,42.54
2019-04-03T12:26:51.736Z,41.13
2019-04-03T12:27:49.998Z,41.33
2019-04-03T12:28:50.171Z,42.03
2019-04-03T12:29:49.802Z,41.42
2019-04-03T12:30:49.783Z,41.73
2019-04-03T12:31:50.101Z,41.53
2019-04-03T12:32:50.237Z,41.95
2019-04-03T12:33:54.927Z,41.35
2019-04-03T12:34:50.975Z,40.92
2019-04-03T12:35:49.703Z,41.55
2019-04-03T12:36:50.179Z,41.55
2019-04-03T12:37:50.802Z,41.14
2019-04-03T12:38:49.899Z,41.55
2019-04-03T12:39:49.777Z,41.75
2019-04-03T12:40:49.641Z,41.73
2019-04-03T12:41:49.633Z,42.33
2019-04-03T12:42:49.621Z,43.66
2019-04-03T12:43:50.323Z,43.57
2019-04-03T12:44:49.894Z,42.55
2019-04-03T12:45:49.595Z,43.06
2019-04-03T12:46:49.564Z,42.86
2019-04-03T12:47:49.841Z,42.66
2019-04-03T12:48:50.993Z,42.96
2019-04-03T12:49:49.558Z,42.46
2019-04-03T12:50:49.525Z,42.96
2019-04-03T12:51:49.829Z,42.38
2019-04-03T12:52:49.574Z,42.25